Observation data for Sundown on 12/07/2018      Previous  Date       Current Mesonet Observations  Soil Data  Daily Summary Page  Observations in Plain Language
KSDS 070600Z 07004KT M01/M03 A3028 RMK A01 T10061033  RH  082%=      5-min Rain = 0
KSDS 070605Z 06004KT M01/M03 A3028 RMK A01 T10051032  RH  082%=      5-min Rain = 0
KSDS 070610Z 06004KT M00/M03 A3028 RMK A01 T10041032  RH  082%=      5-min Rain = 0
KSDS 070615Z 09003KT M00/M03 A3029 RMK A01 T10041031  RH  082%=      5-min Rain = 0
KSDS 070620Z 13003KT M00/M03 A303 RMK A01 T10031031  RH  082%=      5-min Rain = 0
KSDS 070625Z 14002KT M00/M03 A3031 RMK A01 T10041031  RH  082%=      5-min Rain = 0
KSDS 070630Z 11002KT M00/M03 A303 RMK A01 T10031031  RH  082%=      5-min Rain = 0
KSDS 070635Z 12003KT M00/M03 A3031 RMK A01 T10031031  RH  082%=      5-min Rain = 0
KSDS 070640Z 09002KT M00/M03 A303 RMK A01 T10021031  RH  082%=      5-min Rain = 0
KSDS 070645Z 07004KT M00/M03 A3029 RMK A01 T10021030  RH  082%=      5-min Rain = 0
KSDS 070650Z 06004KT M00/M03 A3029 RMK A01 T10021030  RH  081%=      5-min Rain = 0
KSDS 070655Z 05005KT M00/M03 A3029 RMK A01 T10011030  RH  081%=      5-min Rain = 0
KSDS 070700Z 05005KT M00/M03 A3028 RMK A01 T10011031  RH  081%=      5-min Rain = 0
KSDS 070705Z 05005KT M00/M03 A3028 RMK A01 T10011031  RH  081%=      5-min Rain = 0
KSDS 070710Z 05005KT M00/M03 A3028 RMK A01 T10011031  RH  081%=      5-min Rain = 0
KSDS 070715Z 05003KT M00/M03 A3029 RMK A01 T10011031  RH  081%=      5-min Rain = 0
KSDS 070720Z 03003KT M00/M03 A303 RMK A01 T10011031  RH  080%=      5-min Rain = 0
KSDS 070725Z 03003KT M00/M03 A303 RMK A01 T10011031  RH  080%=      5-min Rain = 0
KSDS 070730Z 00002KT M00/M03 A3031 RMK A01 T10011031  RH  080%=      5-min Rain = 0
KSDS 070735Z 35002KT 00/03 A3031 RMK A01 T00-00-31  RH  080%=      5-min Rain = 0
KSDS 070740Z 34003KT 00/03 A3031 RMK A01 T00000-31  RH  080%=      5-min Rain = 0
KSDS 070745Z 35003KT 00/03 A3031 RMK A01 T00000-31  RH  080%=      5-min Rain = 0
KSDS 070750Z 36004KT M00/M03 A3031 RMK A01 T10011029  RH  082%=      5-min Rain = 0
KSDS 070755Z 35003KT M00/M03 A3031 RMK A01 T10011026  RH  084%=      5-min Rain = 0
KSDS 070800Z 01004KT M00/M03 A3031 RMK A01 T10011025  RH  085%=      5-min Rain = 0
KSDS 070805Z 36002KT M00/M02 A3031 RMK A01 T10011024  RH  086%=      5-min Rain = 0
KSDS 070810Z 01004KT M00/M02 A303 RMK A01 T10011024  RH  085%=      5-min Rain = 0
KSDS 070815Z 00004KT M00/M03 A303 RMK A01 T10021025  RH  085%=      5-min Rain = 0
KSDS 070820Z 01003KT M00/M02 A303 RMK A01 T10011024  RH  085%=      5-min Rain = 0
KSDS 070825Z 02003KT M00/M02 A303 RMK A01 T10011024  RH  085%=      5-min Rain = 0
KSDS 070830Z 08002KT M00/M02 A303 RMK A01 T10011023  RH  086%=      5-min Rain = 0
KSDS 070835Z 01002KT M00/M02 A303 RMK A01 T10011022  RH  087%=      5-min Rain = 0
KSDS 070840Z 04005KT M00/M02 A3029 RMK A01 T10021020  RH  088%=      5-min Rain = 0.01
KSDS 070845Z 07008KT M00/M02 A3026 RMK A01 T10041020  RH  090%=      5-min Rain = 0.01
KSDS 070850Z 07009KT M01/M02 A3025 RMK A01 T10051019  RH  091%=      5-min Rain = 0.02
KSDS 070855Z 00008KT M01/M02 A3026 RMK A01 T10051017  RH  093%=      5-min Rain = 0.01
KSDS 070900Z 04003KT M01/M02 A3027 RMK A01 T10051016  RH  093%=      5-min Rain = 0
KSDS 070905Z 03006KT M01/M02 A3026 RMK A01 T10051017  RH  093%=      5-min Rain = 0
KSDS 070910Z 04007KT M01/M02 A3024 RMK A01 T10061017  RH  093%=      5-min Rain = 0
KSDS 070915Z 04007KT M01/M02 A3024 RMK A01 T10071018  RH  093%=      5-min Rain = 0
KSDS 070920Z 06006KT M01/M02 A3024 RMK A01 T10071018  RH  093%=      5-min Rain = 0
KSDS 070925Z 06005KT M01/M02 A3024 RMK A01 T10071018  RH  093%=      5-min Rain = 0
KSDS 070930Z 04005KT M01/M02 A3025 RMK A01 T10071018  RH  093%=      5-min Rain = 0
KSDS 070935Z 03006KT M01/M02 A3024 RMK A01 T10071017  RH  093%=      5-min Rain = 0
KSDS 070940Z 04005KT M01/M02 A3024 RMK A01 T10071018  RH  093%=      5-min Rain = 0
KSDS 070945Z 04004KT M01/M02 A3024 RMK A01 T10071018  RH  093%=      5-min Rain = 0
KSDS 070950Z 06003KT M01/M02 A3025 RMK A01 T10071018  RH  093%=      5-min Rain = 0
KSDS 070955Z 07002KT M01/M02 A3025 RMK A01 T10071017  RH  094%=      5-min Rain = 0
KSDS 071000Z 08003KT M01/M02 A3025 RMK A01 T10071017  RH  094%=      5-min Rain = 0
KSDS 071005Z 07002KT M01/M02 A3025 RMK A01 T10061017  RH  094%=      5-min Rain = 0
KSDS 071010Z 07001KT M01/M02 A3025 RMK A01 T10061017  RH  093%=      5-min Rain = 0
KSDS 071015Z 07002KT M01/M02 A3025 RMK A01 T10061016  RH  093%=      5-min Rain = 0
KSDS 071020Z 06002KT M01/M02 A3024 RMK A01 T10061016  RH  094%=      5-min Rain = 0
KSDS 071025Z 06002KT M01/M02 A3024 RMK A01 T10061016  RH  094%=      5-min Rain = 0
KSDS 071030Z 03001KT M01/M02 A3025 RMK A01 T10061016  RH  094%=      5-min Rain = 0
KSDS 071035Z 02002KT M01/M02 A3025 RMK A01 T10061016  RH  094%=      5-min Rain = 0
KSDS 071040Z 00001KT M01/M02 A3026 RMK A01 T10061016  RH  094%=      5-min Rain = 0
KSDS 071045Z 00002KT M01/M02 A3026 RMK A01 T10061016  RH  094%=      5-min Rain = 0
KSDS 071050Z 32001KT M01/M02 A3027 RMK A01 T10051015  RH  094%=      5-min Rain = 0
KSDS 071055Z 32001KT M01/M02 A3027 RMK A01 T10051015  RH  093%=      5-min Rain = 0
KSDS 071100Z 33002KT M00/M02 A3027 RMK A01 T10041015  RH  093%=      5-min Rain = 0
KSDS 071105Z 36002KT M01/M02 A3027 RMK A01 T10051016  RH  093%=      5-min Rain = 0
KSDS 071110Z 03001KT M01/M02 A3027 RMK A01 T10051017  RH  093%=      5-min Rain = 0
KSDS 071115Z 07002KT M01/M02 A3026 RMK A01 T10051018  RH  092%=      5-min Rain = 0
KSDS 071120Z 05003KT M01/M02 A3026 RMK A01 T10051017  RH  092%=      5-min Rain = 0
KSDS 071125Z 03004KT M01/M02 A3025 RMK A01 T10051017  RH  093%=      5-min Rain = 0
KSDS 071130Z 03006KT M01/M02 A3024 RMK A01 T10061017  RH  093%=      5-min Rain = 0
KSDS 071135Z 02007KT M01/M02 A3024 RMK A01 T10061017  RH  093%=      5-min Rain = 0
KSDS 071140Z 02007KT M01/M02 A3023 RMK A01 T10071017  RH  093%=      5-min Rain = 0
KSDS 071145Z 02005KT M01/M02 A3024 RMK A01 T10071018  RH  093%=      5-min Rain = 0
KSDS 071150Z 02004KT M01/M02 A3024 RMK A01 T10071018  RH  093%=      5-min Rain = 0
KSDS 071155Z 02004KT M01/M02 A3025 RMK A01 T10071019  RH  093%=      5-min Rain = 0
KSDS 071200Z 02004KT M01/M02 A3025 RMK A01 T10081019  RH  093%=      5-min Rain = 0
KSDS 071205Z 03004KT M01/M02 A3025 RMK A01 T10081020  RH  092%=      5-min Rain = 0
KSDS 071210Z 03004KT M01/M02 A3026 RMK A01 T10081020  RH  092%=      5-min Rain = 0
KSDS 071215Z 02004KT M01/M02 A3026 RMK A01 T10071020  RH  092%=      5-min Rain = 0
KSDS 071220Z 03004KT M01/M02 A3025 RMK A01 T10071019  RH  092%=      5-min Rain = 0
KSDS 071225Z 03003KT M01/M02 A3026 RMK A01 T10071020  RH  092%=      5-min Rain = 0
KSDS 071230Z 06002KT M01/M02 A3026 RMK A01 T10071020  RH  091%=      5-min Rain = 0
KSDS 071235Z 11003KT M01/M02 A3026 RMK A01 T10061020  RH  091%=      5-min Rain = 0
KSDS 071240Z 15004KT M01/M02 A3027 RMK A01 T10051019  RH  091%=      5-min Rain = 0
KSDS 071245Z 15003KT M01/M02 A3028 RMK A01 T10051019  RH  092%=      5-min Rain = 0
KSDS 071250Z 11003KT M01/M02 A3027 RMK A01 T10051018  RH  092%=      5-min Rain = 0
KSDS 071255Z 13003KT M01/M02 A3027 RMK A01 T10051018  RH  092%=      5-min Rain = 0
KSDS 071300Z 11003KT M01/M02 A3027 RMK A01 T10051019  RH  091%=      5-min Rain = 0
KSDS 071305Z 11003KT M01/M02 A3027 RMK A01 T10051019  RH  091%=      5-min Rain = 0
KSDS 071310Z 11004KT M01/M02 A3027 RMK A01 T10051020  RH  091%=      5-min Rain = 0
KSDS 071315Z 12003KT M01/M02 A3028 RMK A01 T10051019  RH  091%=      5-min Rain = 0
KSDS 071320Z 15002KT M00/M02 A3029 RMK A01 T10041018  RH  091%=      5-min Rain = 0
KSDS 071325Z 18002KT M00/M02 A3029 RMK A01 T10041018  RH  091%=      5-min Rain = 0
KSDS 071330Z 14001KT M01/M02 A3029 RMK A01 T10051019  RH  091%=      5-min Rain = 0
KSDS 071335Z 10001KT M00/M02 A3029 RMK A01 T10041019  RH  090%=      5-min Rain = 0
KSDS 071340Z 05000KT M00/M02 A3029 RMK A01 T10031018  RH  091%=      5-min Rain = 0
KSDS 071345Z 02001KT M00/M02 A3029 RMK A01 T10031018  RH  091%=      5-min Rain = 0
KSDS 071350Z 00001KT M00/M02 A3029 RMK A01 T10031017  RH  091%=      5-min Rain = 0
KSDS 071355Z 00002KT M00/M02 A3029 RMK A01 T10041019  RH  090%=      5-min Rain = 0
KSDS 071400Z 02003KT M00/M02 A3029 RMK A01 T10041020  RH  090%=      5-min Rain = 0
KSDS 071405Z 03002KT M00/M02 A3029 RMK A01 T10041021  RH  089%=      5-min Rain = 0
KSDS 071410Z 03002KT M00/M02 A3029 RMK A01 T10031020  RH  089%=      5-min Rain = 0
KSDS 071415Z 01003KT M00/M02 A3029 RMK A01 T10031019  RH  089%=      5-min Rain = 0
KSDS 071420Z 36003KT M00/M02 A3029 RMK A01 T10031019  RH  090%=      5-min Rain = 0
KSDS 071425Z 36003KT M00/M02 A3029 RMK A01 T10021018  RH  090%=      5-min Rain = 0
KSDS 071430Z 00003KT M00/M02 A3029 RMK A01 T10031019  RH  090%=      5-min Rain = 0
KSDS 071435Z 00004KT M00/M02 A3029 RMK A01 T10021018  RH  090%=      5-min Rain = 0
KSDS 071440Z 36004KT M00/M02 A3029 RMK A01 T10011017  RH  090%=      5-min Rain = 0
KSDS 071445Z 36005KT M00/M02 A3029 RMK A01 T10021017  RH  090%=      5-min Rain = 0
KSDS 071450Z 35006KT M00/M02 A3029 RMK A01 T10011016  RH  090%=      5-min Rain = 0
KSDS 071455Z 00006KT M00/M02 A3029 RMK A01 T10011016  RH  090%=      5-min Rain = 0
KSDS 071500Z 01006KT 00/02 A303 RMK A01 T00-00-15  RH  090%=      5-min Rain = 0
KSDS 071505Z 01006KT 00/01 A3029 RMK A01 T00000-14  RH  091%=      5-min Rain = 0
KSDS 071510Z 00006KT 00/M01 A3029 RMK A01 T00011014  RH  091%=      5-min Rain = 0
KSDS 071515Z 01007KT 00/M01 A3029 RMK A01 T00011013  RH  091%=      5-min Rain = 0
KSDS 071520Z 01006KT 00/02 A3029 RMK A01 T00000-15  RH  090%=      5-min Rain = 0
KSDS 071525Z 01006KT 00/02 A303 RMK A01 T00000-16  RH  090%=      5-min Rain = 0
KSDS 071530Z 01005KT 00/02 A303 RMK A01 T00000-17  RH  089%=      5-min Rain = 0
KSDS 071535Z 01006KT 00/M02 A303 RMK A01 T00011016  RH  089%=      5-min Rain = 0
KSDS 071540Z 03006KT 00/M02 A3029 RMK A01 T00021016  RH  089%=      5-min Rain = 0
KSDS 071545Z 03007KT 00/M02 A3029 RMK A01 T00021015  RH  089%=      5-min Rain = 0
KSDS 071550Z 04006KT 00/M01 A3028 RMK A01 T00031014  RH  089%=      5-min Rain = 0
KSDS 071555Z 05007KT 00/M01 A3028 RMK A01 T00021014  RH  089%=      5-min Rain = 0
KSDS 071600Z 05007KT 00/M02 A3028 RMK A01 T00021015  RH  089%=      5-min Rain = 0
KSDS 071605Z 05006KT 00/M01 A3028 RMK A01 T00031014  RH  089%=      5-min Rain = 0
KSDS 071610Z 05004KT 00/M01 A3028 RMK A01 T00041013  RH  089%=      5-min Rain = 0.01
KSDS 071615Z 05005KT 00/M01 A3028 RMK A01 T00041014  RH  089%=      5-min Rain = 0
KSDS 071620Z 05004KT 00/M02 A3028 RMK A01 T00041016  RH  088%=      5-min Rain = 0
KSDS 071625Z 05004KT 01/M01 A3029 RMK A01 T00051014  RH  088%=      5-min Rain = 0
KSDS 071630Z 05006KT 01/M01 A3028 RMK A01 T00061012  RH  088%=      5-min Rain = 0.01
KSDS 071635Z 08006KT 01/M01 A3028 RMK A01 T00071010  RH  089%=      5-min Rain = 0
KSDS 071640Z 07006KT 01/M01 A3028 RMK A01 T00071010  RH  089%=      5-min Rain = 0
KSDS 071645Z 07005KT 01/M01 A3028 RMK A01 T00081009  RH  089%=      5-min Rain = 0
KSDS 071650Z 06005KT 01/M01 A3029 RMK A01 T00091008  RH  089%=      5-min Rain = 0
KSDS 071655Z 06005KT 01/M01 A3029 RMK A01 T00091009  RH  089%=      5-min Rain = 0
KSDS 071700Z 06005KT 01/M01 A3029 RMK A01 T00081011  RH  088%=      5-min Rain = 0
KSDS 071705Z 06005KT 01/M01 A3029 RMK A01 T00091010  RH  088%=      5-min Rain = 0
KSDS 071710Z 06004KT 01/M01 A3029 RMK A01 T00091012  RH  087%=      5-min Rain = 0
KSDS 071715Z 06004KT 01/M01 A3029 RMK A01 T00101010  RH  087%=      5-min Rain = 0
KSDS 071720Z 07005KT 01/M01 A3029 RMK A01 T00111009  RH  088%=      5-min Rain = 0
KSDS 071725Z 08006KT 01/M01 A3028 RMK A01 T00121008  RH  088%=      5-min Rain = 0
KSDS 071730Z 07005KT 01/M01 A3028 RMK A01 T00121007  RH  088%=      5-min Rain = 0
KSDS 071735Z 07004KT 01/M01 A3028 RMK A01 T00121007  RH  088%=      5-min Rain = 0
KSDS 071740Z 07005KT 01/M01 A3028 RMK A01 T00121007  RH  088%=      5-min Rain = 0
KSDS 071745Z 07005KT 01/M01 A3027 RMK A01 T00131005  RH  089%=      5-min Rain = 0
KSDS 071750Z 08006KT 01/M00 A3026 RMK A01 T00141004  RH  088%=      5-min Rain = 0
KSDS 071755Z 07005KT 01/M01 A3027 RMK A01 T00141006  RH  087%=      5-min Rain = 0
KSDS 071800Z 09006KT 01/M01 A3026 RMK A01 T00141006  RH  088%=      5-min Rain = 0
KSDS 071805Z 07006KT 02/M01 A3026 RMK A01 T00151005  RH  087%=      5-min Rain = 0
KSDS 071810Z 06005KT 02/M01 A3026 RMK A01 T00161005  RH  087%=      5-min Rain = 0
KSDS 071815Z 08005KT 02/M01 A3026 RMK A01 T00151006  RH  087%=      5-min Rain = 0
KSDS 071820Z 08006KT 02/M00 A3026 RMK A01 T00161004  RH  087%=      5-min Rain = 0
KSDS 071825Z 08006KT 02/M00 A3025 RMK A01 T00161004  RH  087%=      5-min Rain = 0
KSDS 071830Z 07006KT 02/M01 A3025 RMK A01 T00151006  RH  087%=      5-min Rain = 0
KSDS 071835Z 06005KT 02/M01 A3025 RMK A01 T00161005  RH  087%=      5-min Rain = 0
KSDS 071840Z 05005KT 02/M01 A3025 RMK A01 T00161006  RH  086%=      5-min Rain = 0
KSDS 071845Z 05005KT 02/M01 A3025 RMK A01 T00161006  RH  086%=      5-min Rain = 0
KSDS 071850Z 06005KT 02/M01 A3025 RMK A01 T00161006  RH  087%=      5-min Rain = 0
KSDS 071855Z 06006KT 02/M01 A3024 RMK A01 T00161005  RH  087%=      5-min Rain = 0
KSDS 071900Z 06006KT 02/M01 A3025 RMK A01 T00161005  RH  086%=      5-min Rain = 0
KSDS 071905Z 05005KT 02/M01 A3025 RMK A01 T00161006  RH  086%=      5-min Rain = 0
KSDS 071910Z 05005KT 02/M01 A3025 RMK A01 T00161006  RH  087%=      5-min Rain = 0
KSDS 071915Z 04005KT 02/M01 A3024 RMK A01 T00161005  RH  087%=      5-min Rain = 0
KSDS 071920Z 05005KT 02/M00 A3024 RMK A01 T00171004  RH  087%=      5-min Rain = 0
KSDS 071925Z 06006KT 02/M00 A3024 RMK A01 T00171004  RH  087%=      5-min Rain = 0
KSDS 071930Z 05006KT 02/M00 A3024 RMK A01 T00171004  RH  087%=      5-min Rain = 0
KSDS 071935Z 05006KT 02/M01 A3024 RMK A01 T00161005  RH  087%=      5-min Rain = 0
KSDS 071940Z 03005KT 02/M00 A3024 RMK A01 T00161004  RH  087%=      5-min Rain = 0
KSDS 071945Z 03005KT 02/M00 A3024 RMK A01 T00181003  RH  087%=      5-min Rain = 0
KSDS 071950Z 04005KT 02/M00 A3024 RMK A01 T00171004  RH  087%=      5-min Rain = 0
KSDS 071955Z 04005KT 02/M00 A3024 RMK A01 T00171004  RH  087%=      5-min Rain = 0
KSDS 072000Z 04004KT 02/M00 A3024 RMK A01 T00171003  RH  087%=      5-min Rain = 0
KSDS 072005Z 05005KT 02/M00 A3023 RMK A01 T00171004  RH  087%=      5-min Rain = 0
KSDS 072010Z 04006KT 02/M01 A3023 RMK A01 T00161005  RH  087%=      5-min Rain = 0
KSDS 072015Z 05006KT 02/M00 A3022 RMK A01 T00171004  RH  087%=      5-min Rain = 0
KSDS 072020Z 04006KT 02/M00 A3021 RMK A01 T00171004  RH  087%=      5-min Rain = 0
KSDS 072025Z 04006KT 02/M00 A3021 RMK A01 T00171003  RH  088%=      5-min Rain = 0
KSDS 072030Z 05006KT 02/M00 A3021 RMK A01 T00171003  RH  087%=      5-min Rain = 0
KSDS 072035Z 05006KT 02/M00 A3021 RMK A01 T00171004  RH  087%=      5-min Rain = 0
KSDS 072040Z 05006KT 02/M00 A3021 RMK A01 T00171004  RH  087%=      5-min Rain = 0
KSDS 072045Z 06006KT 02/M00 A3021 RMK A01 T00171003  RH  088%=      5-min Rain = 0
KSDS 072050Z 06006KT 02/M00 A3021 RMK A01 T00171003  RH  088%=      5-min Rain = 0
KSDS 072055Z 06006KT 02/M00 A3021 RMK A01 T00181002  RH  088%=      5-min Rain = 0
KSDS 072100Z 06006KT 02/M00 A3021 RMK A01 T00171004  RH  087%=      5-min Rain = 0
KSDS 072105Z 05007KT 02/M00 A3021 RMK A01 T00171004  RH  087%=      5-min Rain = 0
KSDS 072110Z 06007KT 02/M00 A302 RMK A01 T00181003  RH  087%=      5-min Rain = 0
KSDS 072115Z 04008KT 02/M00 A302 RMK A01 T00191002  RH  087%=      5-min Rain = 0
KSDS 072120Z 05007KT 02/M00 A302 RMK A01 T00191002  RH  087%=      5-min Rain = 0
KSDS 072125Z 04007KT 02/M00 A302 RMK A01 T00191002  RH  087%=      5-min Rain = 0
KSDS 072130Z 03006KT 02/M00 A302 RMK A01 T00201001  RH  088%=      5-min Rain = 0
KSDS 072135Z 03007KT 02/M00 A302 RMK A01 T00201001  RH  087%=      5-min Rain = 0
KSDS 072140Z 04008KT 02/M00 A3019 RMK A01 T00191002  RH  087%=      5-min Rain = 0
KSDS 072145Z 05008KT 02/M00 A3019 RMK A01 T00191002  RH  087%=      5-min Rain = 0
KSDS 072150Z 05008KT 02/M00 A3019 RMK A01 T00191001  RH  087%=      5-min Rain = 0
KSDS 072155Z 05009KT 02/M00 A3019 RMK A01 T00191002  RH  087%=      5-min Rain = 0
KSDS 072200Z 04008KT 02/M00 A302 RMK A01 T00181002  RH  087%=      5-min Rain = 0
KSDS 072205Z 05008KT 02/M00 A3021 RMK A01 T00181002  RH  088%=      5-min Rain = 0
KSDS 072210Z 05007KT 02/M00 A302 RMK A01 T00181001  RH  088%=      5-min Rain = 0
KSDS 072215Z 04007KT 02/M00 A3021 RMK A01 T00181001  RH  088%=      5-min Rain = 0
KSDS 072220Z 05007KT 02/M00 A3021 RMK A01 T00171002  RH  088%=      5-min Rain = 0
KSDS 072225Z 06008KT 02/M00 A3021 RMK A01 T00161002  RH  088%=      5-min Rain = 0
KSDS 072230Z 05008KT 02/M00 A3022 RMK A01 T00161002  RH  089%=      5-min Rain = 0
KSDS 072235Z 05007KT 02/M00 A3022 RMK A01 T00161002  RH  089%=      5-min Rain = 0
KSDS 072240Z 06007KT 02/M00 A3022 RMK A01 T00161002  RH  089%=      5-min Rain = 0
KSDS 072245Z 05008KT 02/M00 A3022 RMK A01 T00151003  RH  089%=      5-min Rain = 0
KSDS 072250Z 05008KT 02/M00 A3022 RMK A01 T00151003  RH  089%=      5-min Rain = 0
KSDS 072255Z 05008KT 02/M00 A3022 RMK A01 T00151003  RH  089%=      5-min Rain = 0
KSDS 072300Z 06008KT 02/M00 A3022 RMK A01 T00151004  RH  089%=      5-min Rain = 0
KSDS 072305Z 06009KT 01/M01 A3022 RMK A01 T00141005  RH  089%=      5-min Rain = 0
KSDS 072310Z 06008KT 01/M00 A3021 RMK A01 T00131004  RH  089%=      5-min Rain = 0
KSDS 072315Z 06009KT 01/M01 A3021 RMK A01 T00131005  RH  089%=      5-min Rain = 0
KSDS 072320Z 06008KT 01/M00 A302 RMK A01 T00131004  RH  089%=      5-min Rain = 0
KSDS 072325Z 05007KT 01/M00 A3021 RMK A01 T00131004  RH  090%=      5-min Rain = 0
KSDS 072330Z 06008KT 01/M00 A302 RMK A01 T00131004  RH  090%=      5-min Rain = 0
KSDS 072335Z 06009KT 01/M00 A3021 RMK A01 T00121004  RH  090%=      5-min Rain = 0
KSDS 072340Z 06009KT 01/M00 A302 RMK A01 T00121004  RH  090%=      5-min Rain = 0
KSDS 072345Z 05008KT 01/M00 A302 RMK A01 T00121004  RH  090%=      5-min Rain = 0
KSDS 072350Z 05008KT 01/M00 A302 RMK A01 T00121004  RH  091%=      5-min Rain = 0
KSDS 072355Z 05009KT 01/M00 A302 RMK A01 T00111004  RH  091%=      5-min Rain = 0
KSDS 080000Z 05009KT 01/M00 A3021 RMK A01 T00111004  RH  091%=      5-min Rain = 0
KSDS 080005Z 06010KT 01/M00 A3021 RMK A01 T00101004  RH  091%=      5-min Rain = 0
KSDS 080010Z 05009KT 01/M00 A3021 RMK A01 T00101004  RH  092%=      5-min Rain = 0
KSDS 080015Z 06008KT 01/M00 A3021 RMK A01 T00101004  RH  092%=      5-min Rain = 0
KSDS 080020Z 06009KT 01/M00 A3021 RMK A01 T00091003  RH  092%=      5-min Rain = 0
KSDS 080025Z 06009KT 01/M00 A3022 RMK A01 T00081004  RH  093%=      5-min Rain = 0
KSDS 080030Z 06009KT 01/M00 A3022 RMK A01 T00081004  RH  093%=      5-min Rain = 0
KSDS 080035Z 07010KT 01/M00 A3023 RMK A01 T00071004  RH  093%=      5-min Rain = 0
KSDS 080040Z 06010KT 01/M00 A3022 RMK A01 T00061004  RH  094%=      5-min Rain = 0
KSDS 080045Z 06010KT 01/M01 A3022 RMK A01 T00061005  RH  094%=      5-min Rain = 0
KSDS 080050Z 06009KT 01/M00 A3023 RMK A01 T00051004  RH  094%=      5-min Rain = 0
KSDS 080055Z 06009KT 00/M01 A3023 RMK A01 T00041005  RH  095%=      5-min Rain = 0
KSDS 080100Z 05008KT 00/M01 A3024 RMK A01 T00041005  RH  095%=      5-min Rain = 0
KSDS 080105Z 06007KT 00/M01 A3024 RMK A01 T00041005  RH  095%=      5-min Rain = 0.01
KSDS 080110Z 06008KT 00/M01 A3024 RMK A01 T00041005  RH  095%=      5-min Rain = 0
KSDS 080115Z 06008KT 00/M01 A3024 RMK A01 T00031005  RH  096%=      5-min Rain = 0
KSDS 080120Z 06008KT 00/M01 A3024 RMK A01 T00031005  RH  096%=      5-min Rain = 0
KSDS 080125Z 06009KT 00/M01 A3024 RMK A01 T00021005  RH  096%=      5-min Rain = 0
KSDS 080130Z 06010KT 00/M01 A3024 RMK A01 T00011006  RH  096%=      5-min Rain = 0.01
KSDS 080135Z 05008KT 00/M01 A3024 RMK A01 T00011006  RH  096%=      5-min Rain = 0.02
KSDS 080140Z 05008KT 00/M01 A3024 RMK A01 T00011006  RH  096%=      5-min Rain = 0.01
KSDS 080145Z 05007KT 00/01 A3025 RMK A01 T000000-6  RH  096%=      5-min Rain = 0
KSDS 080150Z 05006KT 00/01 A3025 RMK A01 T00-000-7  RH  096%=      5-min Rain = 0
KSDS 080155Z 05007KT M00/M01 A3025 RMK A01 T10011007  RH  096%=      5-min Rain = 0.01
KSDS 080200Z 05007KT M00/M01 A3026 RMK A01 T10011007  RH  096%=      5-min Rain = 0
KSDS 080205Z 04006KT 00/01 A3025 RMK A01 T00-000-6  RH  097%=      5-min Rain = 0
KSDS 080210Z 04008KT M00/M01 A3026 RMK A01 T10011007  RH  097%=      5-min Rain = 0
KSDS 080215Z 04007KT M00/M01 A3026 RMK A01 T10011007  RH  097%=      5-min Rain = 0
KSDS 080220Z 04007KT M00/M01 A3027 RMK A01 T10011007  RH  097%=      5-min Rain = 0
KSDS 080225Z 06005KT M00/M01 A3027 RMK A01 T10011007  RH  097%=      5-min Rain = 0.01
KSDS 080230Z 06005KT M00/M01 A3027 RMK A01 T10011007  RH  097%=      5-min Rain = 0.01
KSDS 080235Z 05006KT M00/M01 A3027 RMK A01 T10011007  RH  097%=      5-min Rain = 0
KSDS 080240Z 05006KT M00/M01 A3026 RMK A01 T10011007  RH  097%=      5-min Rain = 0.01
KSDS 080245Z 05005KT M00/M01 A3026 RMK A01 T10011007  RH  097%=      5-min Rain = 0.01
KSDS 080250Z 04005KT 00/01 A3026 RMK A01 T00-000-6  RH  097%=      5-min Rain = 0
KSDS 080255Z 03006KT 00/01 A3026 RMK A01 T00-000-6  RH  097%=      5-min Rain = 0.01
KSDS 080300Z 03007KT M00/M01 A3026 RMK A01 T10011006  RH  097%=      5-min Rain = 0
KSDS 080305Z 03007KT M00/M01 A3027 RMK A01 T10011007  RH  097%=      5-min Rain = 0.01
KSDS 080310Z 03006KT M00/M01 A3027 RMK A01 T10011006  RH  097%=      5-min Rain = 0
KSDS 080315Z 04008KT M00/M01 A3027 RMK A01 T10011006  RH  097%=      5-min Rain = 0.01
KSDS 080320Z 04008KT M00/M01 A3026 RMK A01 T10011006  RH  097%=      5-min Rain = 0
KSDS 080325Z 05007KT M00/M01 A3027 RMK A01 T10011006  RH  097%=      5-min Rain = 0
KSDS 080330Z 05007KT M00/M01 A3026 RMK A01 T10011006  RH  097%=      5-min Rain = 0
KSDS 080335Z 05007KT M00/M01 A3026 RMK A01 T10011006  RH  097%=      5-min Rain = 0.01
KSDS 080340Z 05007KT M00/M01 A3026 RMK A01 T10011006  RH  097%=      5-min Rain = 0
KSDS 080345Z 05007KT M00/M01 A3025 RMK A01 T10011006  RH  097%=      5-min Rain = 0
KSDS 080350Z 05006KT M00/M01 A3025 RMK A01 T10011006  RH  097%=      5-min Rain = 0.01
KSDS 080355Z 06006KT M00/M01 A3025 RMK A01 T10011006  RH  097%=      5-min Rain = 0
KSDS 080400Z 05006KT 00/01 A3025 RMK A01 T00-000-5  RH  097%=      5-min Rain = 0.01
KSDS 080405Z 05007KT M00/M01 A3025 RMK A01 T10011005  RH  098%=      5-min Rain = 0
KSDS 080410Z 05008KT M00/M01 A3025 RMK A01 T10011006  RH  098%=      5-min Rain = 0
KSDS 080415Z 05008KT M00/M01 A3025 RMK A01 T10011006  RH  098%=      5-min Rain = 0
KSDS 080420Z 05007KT M00/M01 A3025 RMK A01 T10011006  RH  098%=      5-min Rain = 0
KSDS 080425Z 05007KT M00/M01 A3025 RMK A01 T10011006  RH  098%=      5-min Rain = 0.01
KSDS 080430Z 05006KT M00/M01 A3025 RMK A01 T10011006  RH  098%=      5-min Rain = 0
KSDS 080435Z 05007KT M00/M01 A3025 RMK A01 T10011006  RH  098%=      5-min Rain = 0
KSDS 080440Z 04006KT 00/01 A3025 RMK A01 T00-000-5  RH  098%=      5-min Rain = 0
KSDS 080445Z 04006KT M00/M01 A3025 RMK A01 T10011005  RH  098%=      5-min Rain = 0
KSDS 080450Z 04007KT M00/M01 A3025 RMK A01 T10011005  RH  098%=      5-min Rain = 0
KSDS 080455Z 04006KT M00/M01 A3025 RMK A01 T10011005  RH  098%=      5-min Rain = 0
KSDS 080500Z 04007KT M00/M01 A3025 RMK A01 T10011006  RH  098%=      5-min Rain = 0
KSDS 080505Z 04006KT M00/M01 A3025 RMK A01 T10011006  RH  098%=      5-min Rain = 0
KSDS 080510Z 03006KT M00/M01 A3025 RMK A01 T10011006  RH  098%=      5-min Rain = 0
KSDS 080515Z 02006KT M00/M01 A3025 RMK A01 T10011006  RH  098%=      5-min Rain = 0
KSDS 080520Z 02007KT M00/M01 A3025 RMK A01 T10011006  RH  098%=      5-min Rain = 0
KSDS 080525Z 02007KT M00/M01 A3025 RMK A01 T10011006  RH  098%=      5-min Rain = 0
KSDS 080530Z 02007KT M00/M01 A3025 RMK A01 T10011006  RH  098%=      5-min Rain = 0
KSDS 080535Z 02006KT M00/M01 A3025 RMK A01 T10011006  RH  098%=      5-min Rain = 0
KSDS 080540Z 02007KT M00/M01 A3025 RMK A01 T10011006  RH  098%=      5-min Rain = 0
KSDS 080545Z 01006KT M00/M01 A3025 RMK A01 T10011006  RH  098%=      5-min Rain = 0
KSDS 080550Z 02006KT M00/M01 A3025 RMK A01 T10011006  RH  098%=      5-min Rain = 0
KSDS 080555Z 02006KT M00/M01 A3026 RMK A01 T10011006  RH  098%=      5-min Rain = 0

Page generated in 0.0088 seconds.